Latest Weather Observations for Scottsdale

IDT60801

Issued at 9:05 pm EST Monday 1 September 2014 (issued every 30 minutes, with the page automatically refreshed every 10 minutes)

About weather observations | Map of weather stations | Latest weather observations for TAS | Other Formats
Station Details ID: 091219 Name: SCOTTSDALE (WEST MINSTONE ROAD) Lat: -41.17 Lon: 147.49 Height: 197.5 m
Data from the previous 72 hours. | See also: Recent months at Scottsdale
Date/Time
EST
Temp
°C
App
Temp
°C
Dew
Point
Rel
Hum
%
Delta-T
°C
Wind Press
QNH
hPa
Press
MSL
hPa
Rain
since 9 am
mm
Dir
 
Spd
km/h
Gust
km/h
Spd
kts
Gust
kts
01/09:00pm 9.2 4.4 4.8 74 2.0 S 19 26 10 14 1006.9 1007.1 6.0
01/08:30pm 9.3 4.1 5.6 78 1.7 S 22 32 12 17 1006.7 - 6.0
01/08:00pm 8.5 7.7 8.3 99 0.1 ESE 2 6 1 3 1006.3 - 6.0
01/07:30pm 8.7 8.3 8.1 96 0.3 CALM 0 0 0 0 1005.6 - 6.0
01/07:00pm 10.0 9.9 9.4 96 0.3 CALM 0 0 0 0 1005.3 - 6.0
01/06:30pm 10.2 9.0 9.6 96 0.3 N 6 7 3 4 1005.2 - 6.0
01/06:00pm 10.5 9.2 9.9 96 0.3 WNW 7 13 4 7 1004.7 1004.9 6.0
01/05:30pm 10.5 8.1 9.9 96 0.3 NNW 13 20 7 11 1004.3 - 6.0
01/05:00pm 10.6 8.2 10.0 96 0.3 NW 13 17 7 9 1004.0 - 6.0
01/04:30pm 10.6 7.8 10.0 96 0.3 NW 15 20 8 11 1003.7 - 6.0
01/04:00pm 10.7 7.5 9.9 95 0.4 NW 17 26 9 14 1003.7 - 6.0
01/03:30pm 10.7 7.1 9.9 95 0.4 NW 19 26 10 14 1003.5 - 6.0
01/03:00pm 10.8 6.7 10.2 96 0.3 NW 22 30 12 16 1003.4 1003.6 6.0
01/02:30pm 10.9 6.1 10.3 96 0.3 NNW 26 43 14 23 1003.4 - 5.8
01/02:00pm 11.3 7.7 10.5 95 0.4 NNW 20 30 11 16 1003.7 - 4.6
01/01:30pm 11.2 8.2 10.6 96 0.3 NNW 17 26 9 14 1003.9 - 3.8
01/01:00pm 11.3 8.6 10.3 94 0.5 NNW 15 20 8 11 1004.3 - 3.0
01/12:30pm 11.4 9.4 10.0 91 0.7 NNW 11 15 6 8 1004.5 - 2.2
01/12:00pm 11.6 10.2 10.8 95 0.4 NW 9 13 5 7 1005.5 1005.8 1.6
01/11:30am 11.9 9.6 10.6 92 0.7 NW 13 19 7 10 1005.8 - 1.0
01/11:00am 12.1 10.1 10.0 87 1.1 WNW 11 19 6 10 1006.0 - 0.8
01/10:30am 12.4 10.2 9.3 81 1.6 NNW 11 15 6 8 1006.1 - 0.4
01/10:00am 12.7 8.2 8.5 75 2.1 NNW 22 32 12 17 1006.5 - 0.2
01/09:30am 12.5 10.2 9.0 79 1.8 N 11 17 6 9 1006.6 - 0.0
01/09:00am 12.4 10.5 9.1 80 1.7 NNW 9 11 5 6 1006.9 1007.2 0.6
01/08:30am 12.5 9.3 8.5 76 2.0 N 15 22 8 12 1006.8 - 0.6
01/08:00am 12.0 10.0 8.8 81 1.6 NNW 9 17 5 9 1007.0 - 0.6
01/07:30am 10.4 8.1 9.0 91 0.7 ESE 11 13 6 7 1006.9 - 0.4
01/07:00am 9.9 6.4 8.7 92 0.6 E 17 20 9 11 1007.1 - 0.4
01/06:30am 10.3 7.9 8.5 89 0.9 SE 11 15 6 8 1007.8 - 0.2
01/06:00am 10.3 8.2 8.3 87 1.0 SSE 9 13 5 7 1008.1 1008.3 0.2
01/05:30am 10.2 8.6 8.0 86 1.1 S 6 9 3 5 1008.0 - 0.2
01/05:00am 9.9 7.8 8.1 88 0.9 SSE 9 15 5 8 1008.4 - 0.2
01/04:30am 9.9 7.8 8.1 88 0.9 SE 9 13 5 7 1008.0 - 0.2
01/04:00am 9.9 6.9 7.8 87 1.0 SE 13 17 7 9 1008.0 - 0.2
01/03:30am 10.1 7.9 7.8 86 1.1 SE 9 11 5 6 1009.0 - 0.0
01/03:00am 10.1 7.9 7.8 86 1.1 SE 9 13 5 7 1009.1 1009.4 0.0
01/02:30am 10.5 8.2 7.6 82 1.4 ESE 9 13 5 7 1009.5 - 0.0
01/02:00am 9.9 7.6 7.6 85 1.1 ESE 9 11 5 6 1009.9 - 0.0
01/01:30am 9.9 7.5 7.2 83 1.3 SE 9 11 5 6 1010.3 - 0.0
01/01:00am 9.8 7.0 6.9 82 1.4 SE 11 13 6 7 1010.5 - 0.0
01/12:30am 9.1 6.7 7.0 87 1.0 SSE 9 11 5 6 1010.9 - 0.0
01/12:00am 9.3 6.6 7.2 87 1.0 SSE 11 15 6 8 1011.3 1011.8 0.0
 
Date/Time
EST
Temp
°C
App
Temp
°C
Dew
Point
Rel
Hum
%
Delta-T
°C
Wind Press
QNH
hPa
Press
MSL
hPa
Rain
since 9 am
mm
Dir
 
Spd
km/h
Gust
km/h
Spd
kts
Gust
kts
31/11:30pm 9.3 6.6 7.4 88 0.9 SSE 11 15 6 8 1011.5 - 0.0
31/11:00pm 9.2 6.9 7.5 89 0.8 SSE 9 11 5 6 1011.8 - 0.0
31/10:30pm 9.5 7.2 7.6 88 0.9 ESE 9 11 5 6 1012.3 - 0.0
31/10:00pm 9.5 7.4 8.1 91 0.7 SE 9 11 5 6 1012.8 - 0.0
31/09:30pm 9.4 7.8 8.2 92 0.6 S 6 6 3 3 1013.1 - 0.0
31/09:00pm 9.8 7.3 8.4 91 0.7 SE 11 13 6 7 1013.0 1013.4 0.0
31/08:30pm 9.9 7.5 8.5 91 0.7 SSE 11 11 6 6 1013.3 - 0.0
31/08:00pm 9.9 8.4 8.5 91 0.7 SSE 6 7 3 4 1013.6 - 0.0
31/07:30pm 10.3 8.8 8.5 89 0.9 SSE 6 9 3 5 1013.6 - 0.0
31/07:00pm 9.9 8.2 8.5 91 0.7 E 7 9 4 5 1013.7 - 0.0
31/06:30pm 10.0 8.4 8.6 91 0.7 E 7 9 4 5 1013.7 - 0.0
31/06:00pm 10.7 8.6 8.3 85 1.2 NE 9 9 5 5 1013.6 1014.1 0.0
31/05:30pm 11.0 9.0 8.6 85 1.2 NE 9 11 5 6 1013.7 - 0.0
31/05:00pm 12.2 10.8 9.5 83 1.4 NNE 7 9 4 5 1013.9 - 0.0
31/04:30pm 13.1 10.6 8.1 71 2.5 N 11 15 6 8 1014.1 - 0.0
31/04:00pm 13.9 11.5 8.6 70 2.7 N 11 13 6 7 1014.2 - 0.0
31/03:30pm 14.0 11.6 8.7 70 2.7 N 11 15 6 8 1014.4 - 0.0
31/03:00pm 14.2 11.9 8.9 70 2.7 N 11 17 6 9 1014.8 1015.3 0.0
31/02:30pm 14.8 11.9 9.6 71 2.7 N 15 20 8 11 1015.1 - 0.0
31/02:00pm 14.7 11.2 8.9 68 3.0 N 17 20 9 11 1015.4 - 0.0
31/01:30pm 14.4 11.8 9.4 72 2.6 N 13 19 7 10 1015.7 - 0.0
31/01:00pm 13.8 11.5 9.1 73 2.4 N 11 17 6 9 1016.1 - 0.0
31/12:30pm 14.7 13.5 10.3 75 2.3 NNW 7 15 4 8 1016.6 - 0.0
31/12:00pm 13.9 11.7 9.4 74 2.3 NNW 11 17 6 9 1017.1 1017.6 0.0
31/11:30am 13.7 11.6 9.9 78 2.0 NNW 11 17 6 9 1017.5 - 0.0
31/11:00am 13.2 11.4 9.5 78 1.9 NNW 9 13 5 7 1017.8 - 0.0
31/10:30am 13.2 11.5 9.7 79 1.8 N 9 13 5 7 1018.4 - 0.0
31/10:00am 12.4 12.0 9.9 85 1.3 SW 2 7 1 4 1018.8 - 0.0
31/09:30am 11.5 11.3 9.1 85 1.2 CALM 0 6 0 3 1019.2 - 0.0
31/09:00am 10.8 9.3 9.0 89 0.9 SE 7 7 4 4 1019.3 1019.8 0.0
31/08:30am 10.2 8.7 8.6 90 0.8 SSE 6 7 3 4 1019.5 - 0.0
31/08:00am 9.9 7.8 8.1 88 0.9 SE 9 11 5 6 1019.6 - 0.0
31/07:30am 9.3 7.0 7.6 89 0.8 SSE 9 11 5 6 1019.6 - 0.0
31/07:00am 8.8 7.1 7.5 91 0.6 S 6 9 3 5 1019.6 - 0.0
31/06:30am 8.4 6.6 7.1 91 0.6 S 6 7 3 4 1019.5 - 0.0
31/06:00am 8.3 5.9 7.0 91 0.6 SE 9 11 5 6 1019.5 1020.0 0.0
31/05:30am 8.1 6.0 6.8 91 0.6 SE 7 9 4 5 1019.5 - 0.0
31/05:00am 8.0 5.1 6.5 90 0.7 SSE 11 11 6 6 1019.5 - 0.0
31/04:30am 8.1 5.6 6.6 90 0.7 SSE 9 11 5 6 1019.6 - 0.0
31/04:00am 7.5 4.6 6.6 94 0.4 SSE 11 13 6 7 1019.8 - 0.0
31/03:30am 6.5 4.2 5.6 94 0.4 S 7 9 4 5 1020.3 - 0.0
31/03:00am 5.9 3.1 5.0 94 0.4 S 9 11 5 6 1020.5 1021.0 0.0
31/02:30am 6.3 3.9 5.4 94 0.4 S 7 9 4 5 1020.9 - 0.0
31/02:00am 6.6 3.5 5.5 93 0.5 SE 11 13 6 7 1021.2 - 0.0
31/01:30am 6.9 3.4 5.6 91 0.6 SE 13 13 7 7 1021.4 - 0.0
31/01:00am 7.3 3.9 5.8 90 0.7 ESE 13 15 7 8 1021.7 - 0.0
31/12:30am 7.0 3.6 5.7 91 0.6 ESE 13 15 7 8 1021.9 - 0.0
31/12:00am 7.0 3.6 5.7 91 0.6 ESE 13 15 7 8 1022.1 1022.7 0.0
 
Date/Time
EST
Temp
°C
App
Temp
°C
Dew
Point
Rel
Hum
%
Delta-T
°C
Wind Press
QNH
hPa
Press
MSL
hPa
Rain
since 9 am
mm
Dir
 
Spd
km/h
Gust
km/h
Spd
kts
Gust
kts
30/11:30pm 6.6 3.1 5.5 93 0.5 SSE 13 15 7 8 1022.8 - 0.0
30/11:00pm 6.7 3.2 5.4 91 0.6 SE 13 15 7 8 1023.0 - 0.0
30/10:30pm 6.9 3.4 5.6 91 0.6 SE 13 15 7 8 1023.6 - 0.0
30/10:00pm 7.4 4.3 5.6 88 0.8 ESE 11 11 6 6 1024.1 - 0.0
30/09:30pm 7.3 4.2 5.5 88 0.8 ESE 11 13 6 7 1024.2 - 0.0
30/09:00pm 7.2 4.5 5.6 89 0.7 SE 9 11 5 6 1024.2 1024.7 0.0
30/08:30pm 7.2 3.7 5.4 88 0.8 ESE 13 15 7 8 1024.1 - 0.0
30/08:00pm 7.7 4.6 5.5 86 1.0 ESE 11 15 6 8 1024.1 - 0.0
30/07:30pm 8.0 4.5 5.6 85 1.1 E 13 17 7 9 1024.1 - 0.0
30/07:00pm 7.8 4.7 5.4 85 1.1 ENE 11 13 6 7 1024.4 - 0.0
30/06:30pm 8.2 5.5 5.5 83 1.2 E 9 11 5 6 1024.3 - 0.0
30/06:00pm 8.9 6.2 5.6 80 1.5 NNE 9 11 5 6 1024.4 1024.9 0.0
30/05:30pm 10.5 7.1 6.0 74 2.1 NNE 13 17 7 9 1024.4 - 0.0
30/05:00pm 12.2 8.4 5.6 64 3.1 N 15 20 8 11 1024.5 - 0.0
30/04:30pm 13.0 8.5 6.1 63 3.3 N 19 24 10 13 1024.5 - 0.0
30/04:00pm 13.7 9.6 6.4 61 3.5 N 17 22 9 12 1024.4 - 0.0
30/03:30pm 14.0 9.9 6.3 60 3.7 N 17 24 9 13 1024.6 - 0.0
30/03:00pm 14.7 10.8 7.2 61 3.7 N 17 22 9 12 1024.8 1025.3 0.0
30/02:30pm 14.2 11.3 6.6 60 3.7 NNE 11 15 6 8 1025.0 - 0.0
30/02:00pm 15.2 11.8 7.8 61 3.7 NNE 15 20 8 11 1025.1 - 0.0
30/01:30pm 14.6 11.3 6.6 58 3.9 NE 13 20 7 11 1025.4 - 0.0
30/01:00pm 14.3 10.6 6.2 58 3.9 NE 15 20 8 11 1025.8 - 0.0
30/12:30pm 13.4 9.8 6.8 64 3.2 NE 15 20 8 11 1026.2 - 0.0
30/12:00pm 13.7 10.5 6.9 63 3.3 NE 13 15 7 8 1026.8 1027.4 0.0
30/11:30am 13.6 10.5 7.3 65 3.1 NE 13 20 7 11 1027.3 - 0.0
30/11:00am 13.2 10.2 7.5 68 2.8 NE 13 19 7 10 1027.6 - 0.0
30/10:30am 13.6 10.4 7.0 64 3.2 NE 13 17 7 9 1028.2 - 0.0
30/10:00am 12.3 9.1 8.3 76 2.0 NE 15 20 8 11 1028.7 - 0.0
30/09:30am 13.1 10.3 8.7 74 2.2 NE 13 19 7 10 1028.9 - 0.0
30/09:00am 12.7 9.9 8.7 76 2.0 NE 13 19 7 10 1029.0 1029.5 0.0
30/08:30am 11.9 9.6 9.1 83 1.4 ENE 11 15 6 8 1029.3 - 0.0
30/08:00am 10.9 9.2 8.5 85 1.2 E 7 9 4 5 1029.3 - 0.0
30/07:30am 10.1 8.5 8.7 91 0.7 ESE 7 9 4 5 1029.3 - 0.0
30/07:00am 9.4 6.9 8.2 92 0.6 ESE 11 13 6 7 1029.0 - 0.0
30/06:30am 9.2 7.1 8.2 93 0.5 ESE 9 13 5 7 1028.8 - 0.0
30/06:00am 9.6 7.1 8.2 91 0.7 ESE 11 11 6 6 1028.5 1029.1 0.0
30/05:30am 9.5 6.9 7.8 89 0.8 ESE 11 13 6 7 1028.5 - 0.0
30/05:00am 9.4 6.8 7.7 89 0.8 ESE 11 11 6 6 1028.5 - 0.0
30/04:30am 9.1 6.5 7.6 90 0.7 SE 11 11 6 6 1028.8 - 0.0
30/04:00am 9.2 6.5 7.5 89 0.8 SE 11 13 6 7 1028.8 - 0.0
30/03:30am 9.1 6.5 7.6 90 0.7 SE 11 13 6 7 1028.9 - 0.0
30/03:00am 9.2 7.0 7.7 90 0.7 SSE 9 11 5 6 1029.2 1029.7 0.0
30/02:30am 9.6 7.4 7.7 88 0.9 SSE 9 9 5 5 1029.4 - 0.0
30/02:00am 9.4 6.8 7.9 90 0.7 SE 11 11 6 6 1029.5 - 0.0
30/01:30am 9.1 6.4 7.4 89 0.8 SSE 11 13 6 7 1029.6 - 0.0
30/01:00am 8.4 5.6 6.9 90 0.7 SSE 11 13 6 7 1029.7 - 0.0
30/12:30am 8.4 5.2 6.9 90 0.7 SSE 13 15 7 8 1029.7 - 0.0
30/12:00am 8.4 5.3 7.1 91 0.6 SSE 13 13 7 7 1029.8 1030.3 0.0
 
Date/Time
EST
Temp
°C
App
Temp
°C
Dew
Point
Rel
Hum
%
Delta-T
°C
Wind Press
QNH
hPa
Press
MSL
hPa
Rain
since 9 am
mm
Dir
 
Spd
km/h
Gust
km/h
Spd
kts
Gust
kts
29/11:30pm 8.5 5.9 7.7 95 0.4 ESE 11 15 6 8 1029.7 - 0.0
29/11:00pm 7.2 3.8 6.1 93 0.5 SSE 13 15 7 8 1029.7 - 0.0
29/10:30pm 7.2 4.2 5.9 91 0.6 SSE 11 13 6 7 1029.8 - 0.0
29/10:00pm 8.1 4.8 6.4 89 0.8 SSE 13 15 7 8 1029.9 - 0.0
29/09:30pm 8.1 4.8 6.4 89 0.8 SE 13 15 7 8 1029.9 - 0.0

Other Formats:

Comma delimited format used in spreadsheet applications
http://www.bom.gov.au/fwo/IDT60801/IDT60801.94972.axf

JavaScript Object Notation format (JSON) in row-major order
http://www.bom.gov.au/fwo/IDT60801/IDT60801.94972.json